createdAt,value
2023-03-17T00:00:27.925Z,24.20
2023-03-17T00:02:59.790Z,32.78
2023-03-17T00:05:34.080Z,26.00
2023-03-17T00:08:08.585Z,24.02
2023-03-17T00:10:37.750Z,18.42
2023-03-17T00:13:12.320Z,17.70
2023-03-17T00:15:41.431Z,24.35
2023-03-17T00:18:15.107Z,25.52
2023-03-17T00:20:44.536Z,27.38
2023-03-17T00:23:17.110Z,26.17
2023-03-17T00:25:46.871Z,23.30
2023-03-17T00:28:21.125Z,27.00
2023-03-17T00:30:54.795Z,23.90
2023-03-17T00:33:26.506Z,25.55
2023-03-17T00:35:56.274Z,16.90
2023-03-17T00:38:27.983Z,36.25
2023-03-17T00:40:57.074Z,29.60
2023-03-17T00:43:29.310Z,24.73
2023-03-17T00:45:59.772Z,25.23
2023-03-17T00:48:29.918Z,28.80
2023-03-17T00:50:58.999Z,28.40
2023-03-17T00:53:30.980Z,28.10
2023-03-17T00:56:03.764Z,26.60
2023-03-17T00:58:35.628Z,33.70
2023-03-17T01:01:04.712Z,28.98
2023-03-17T01:03:41.264Z,23.05
2023-03-17T01:06:12.724Z,40.10
2023-03-17T01:08:42.748Z,34.58
2023-03-17T01:11:18.655Z,33.58
2023-03-17T01:13:51.025Z,31.60
2023-03-17T01:16:20.208Z,33.83
2023-03-17T01:18:49.464Z,21.17
2023-03-17T01:21:18.509Z,29.05
2023-03-17T01:23:48.329Z,33.25
2023-03-17T01:26:17.482Z,26.35
2023-03-17T01:28:46.569Z,31.55
2023-03-17T01:31:17.350Z,31.38
2023-03-17T01:33:47.428Z,31.40
2023-03-17T01:36:17.866Z,32.78
2023-03-17T01:38:48.249Z,27.60
2023-03-17T01:41:17.380Z,26.37
2023-03-17T01:43:46.364Z,32.75
2023-03-17T01:46:25.457Z,33.63
2023-03-17T01:49:17.256Z,32.35
2023-03-17T01:51:57.652Z,25.33
2023-03-17T01:54:43.916Z,34.15
2023-03-17T01:57:17.518Z,25.00
2023-03-17T01:59:50.215Z,31.95
2023-03-17T02:02:26.857Z,30.25
2023-03-17T02:04:56.812Z,24.90
2023-03-17T02:07:30.963Z,24.77
2023-03-17T02:10:00.393Z,27.88
2023-03-17T02:12:30.543Z,22.88
2023-03-17T02:15:00.216Z,19.95
2023-03-17T02:17:33.722Z,21.77
2023-03-17T02:20:29.147Z,29.63
2023-03-17T02:23:01.454Z,27.52
2023-03-17T02:25:36.969Z,24.08
2023-03-17T02:28:11.688Z,21.75
2023-03-17T02:30:40.744Z,19.20
2023-03-17T02:33:11.886Z,21.10
2023-03-17T02:35:41.514Z,23.83
2023-03-17T02:38:12.105Z,20.83
2023-03-17T02:40:41.201Z,20.50
2023-03-17T02:43:10.629Z,21.05
2023-03-17T02:45:39.642Z,20.23
2023-03-17T02:48:09.326Z,23.65
2023-03-17T02:50:38.535Z,19.30
2023-03-17T02:53:08.238Z,20.27
2023-03-17T02:55:38.596Z,18.33
2023-03-17T02:58:07.568Z,24.60
2023-03-17T03:00:41.240Z,29.15
2023-03-17T03:03:10.463Z,23.85
2023-03-17T03:05:39.469Z,24.45
2023-03-17T03:08:08.563Z,25.15
2023-03-17T03:10:39.001Z,21.27
2023-03-17T03:13:08.057Z,24.13
2023-03-17T03:15:37.591Z,19.45
2023-03-17T03:18:06.766Z,26.27
2023-03-17T03:20:35.810Z,27.30
2023-03-17T03:23:05.133Z,21.75
2023-03-17T03:25:34.906Z,27.17
2023-03-17T03:28:06.623Z,21.17
2023-03-17T03:30:36.964Z,25.27
2023-03-17T03:33:06.666Z,31.05
2023-03-17T03:35:35.715Z,26.27
2023-03-17T03:38:04.819Z,23.55
2023-03-17T03:40:33.944Z,35.80
2023-03-17T03:43:19.801Z,31.60
2023-03-17T03:45:50.842Z,27.88
2023-03-17T03:48:20.543Z,31.00
2023-03-17T03:50:49.785Z,29.48
2023-03-17T03:53:18.754Z,29.58
2023-03-17T03:55:47.777Z,40.00
2023-03-17T03:58:18.161Z,45.15
2023-03-17T04:00:47.817Z,41.83
2023-03-17T04:03:19.340Z,45.63
2023-03-17T04:05:48.386Z,35.70
2023-03-17T04:08:17.687Z,34.03
2023-03-17T04:10:46.733Z,47.63
2023-03-17T04:13:17.102Z,41.58
2023-03-17T04:15:46.178Z,33.60
2023-03-17T04:18:15.212Z,42.20
2023-03-17T04:20:46.387Z,49.63
2023-03-17T04:23:15.394Z,47.15
2023-03-17T04:25:45.043Z,43.08
2023-03-17T04:28:14.078Z,48.05
2023-03-17T04:30:44.458Z,45.58
2023-03-17T04:33:13.944Z,46.73
2023-03-17T04:35:42.920Z,54.95
2023-03-17T04:38:13.575Z,38.80
2023-03-17T04:41:01.461Z,51.15
2023-03-17T04:43:31.684Z,47.17
2023-03-17T04:46:02.190Z,33.92
2023-03-17T04:48:31.548Z,52.65
2023-03-17T04:51:00.604Z,53.30
2023-03-17T04:53:33.072Z,50.22
2023-03-17T04:56:02.161Z,49.28
2023-03-17T04:58:31.377Z,48.10
2023-03-17T05:01:02.644Z,61.92
2023-03-17T05:03:33.273Z,49.40
2023-03-17T05:06:03.422Z,44.05
2023-03-17T05:08:32.955Z,48.00
2023-03-17T05:11:02.108Z,51.55
2023-03-17T05:13:31.104Z,53.15
2023-03-17T05:16:02.245Z,52.25
2023-03-17T05:18:31.366Z,43.08
2023-03-17T05:21:03.838Z,52.95
2023-03-17T05:23:35.288Z,45.67
2023-03-17T05:26:14.678Z,44.08
2023-03-17T05:28:43.731Z,45.65
2023-03-17T05:31:14.149Z,49.05
2023-03-17T05:33:44.788Z,42.53
2023-03-17T05:36:14.548Z,46.10
2023-03-17T05:38:46.788Z,47.90
2023-03-17T05:41:15.866Z,52.78
2023-03-17T05:43:44.869Z,57.72
2023-03-17T05:46:15.411Z,62.20
2023-03-17T05:48:44.556Z,58.45
2023-03-17T05:51:13.843Z,52.70
2023-03-17T05:53:43.452Z,48.10
2023-03-17T05:56:12.803Z,58.47
2023-03-17T05:58:41.803Z,51.58
2023-03-17T06:01:10.856Z,63.53
2023-03-17T06:03:42.131Z,47.08
2023-03-17T06:08:39.890Z,62.17
2023-03-17T06:11:09.022Z,59.22
2023-03-17T06:13:38.048Z,59.13
2023-03-17T06:16:07.849Z,49.63
2023-03-17T06:18:36.831Z,59.58
2023-03-17T06:21:07.511Z,45.95
2023-03-17T06:23:36.691Z,54.28
2023-03-17T06:26:06.451Z,62.90
2023-03-17T06:28:35.804Z,49.47
2023-03-17T06:31:07.207Z,49.35
2023-03-17T06:33:36.785Z,52.17
2023-03-17T06:36:08.332Z,46.03
2023-03-17T06:38:37.738Z,54.97
2023-03-17T06:41:07.037Z,56.42
2023-03-17T06:43:39.116Z,44.03
2023-03-17T06:46:08.440Z,55.42
2023-03-17T06:48:38.335Z,43.08
2023-03-17T06:51:08.895Z,46.70
2023-03-17T06:53:37.869Z,41.37
2023-03-17T06:56:12.547Z,44.92
2023-03-17T06:58:47.004Z,46.08
2023-03-17T07:01:17.842Z,50.33
2023-03-17T07:03:46.915Z,47.40
2023-03-17T07:06:17.361Z,60.45
2023-03-17T07:08:49.732Z,43.10
2023-03-17T07:11:18.730Z,55.97
2023-03-17T07:13:47.742Z,56.17
2023-03-17T07:16:19.645Z,47.38
2023-03-17T07:18:48.884Z,54.55
2023-03-17T07:21:19.418Z,43.60
2023-03-17T07:23:48.531Z,61.80
2023-03-17T07:26:17.503Z,67.25
2023-03-17T07:28:48.780Z,70.28
2023-03-17T07:33:47.028Z,59.88
2023-03-17T07:36:16.215Z,68.35
2023-03-17T07:38:46.703Z,62.38
2023-03-17T07:41:15.994Z,51.53
2023-03-17T07:43:45.077Z,47.90
2023-03-17T07:46:14.809Z,45.03
2023-03-17T07:48:44.676Z,39.03
2023-03-17T07:51:17.110Z,37.28
2023-03-17T07:53:47.777Z,34.33
2023-03-17T07:56:18.113Z,35.95
2023-03-17T07:58:47.285Z,42.43
2023-03-17T08:01:17.342Z,52.15
2023-03-17T08:03:46.392Z,47.67
2023-03-17T08:06:15.729Z,41.80
2023-03-17T08:08:44.771Z,43.30
2023-03-17T08:11:16.949Z,40.38
2023-03-17T08:13:46.023Z,39.30
2023-03-17T08:16:15.736Z,41.97
2023-03-17T08:18:44.900Z,52.45
2023-03-17T08:21:16.793Z,50.53
2023-03-17T08:23:45.839Z,51.55
2023-03-17T08:26:16.823Z,40.03
2023-03-17T08:28:46.287Z,49.30
2023-03-17T08:31:17.456Z,46.60
2023-03-17T08:33:49.740Z,48.53
2023-03-17T08:36:19.702Z,41.67
2023-03-17T08:38:49.238Z,43.92
2023-03-17T08:41:21.934Z,42.65
2023-03-17T08:43:51.777Z,41.65
2023-03-17T08:46:24.555Z,34.97
2023-03-17T08:48:56.432Z,43.10
2023-03-17T08:51:27.084Z,34.53
2023-03-17T08:53:57.036Z,33.78
2023-03-17T08:56:29.126Z,29.80
2023-03-17T08:58:58.621Z,43.67
2023-03-17T09:01:28.430Z,37.97
2023-03-17T09:03:57.662Z,50.75
2023-03-17T09:06:27.714Z,48.15
2023-03-17T09:08:56.745Z,51.30
2023-03-17T09:11:29.629Z,52.80
2023-03-17T09:13:58.638Z,49.70
2023-03-17T09:16:28.845Z,50.25
2023-03-17T09:18:57.976Z,53.00
2023-03-17T09:21:27.380Z,52.25
2023-03-17T09:23:56.401Z,46.30
2023-03-17T09:26:26.537Z,44.92
2023-03-17T09:28:57.072Z,49.28
2023-03-17T09:31:27.106Z,45.50
2023-03-17T09:33:56.420Z,39.25
2023-03-17T09:36:25.484Z,49.25
2023-03-17T09:38:54.505Z,38.75
2023-03-17T09:41:57.148Z,35.65
2023-03-17T09:44:46.002Z,44.45
2023-03-17T09:47:43.119Z,53.03
2023-03-17T09:50:16.487Z,37.58
2023-03-17T09:52:46.767Z,34.08
2023-03-17T09:55:26.322Z,40.22
2023-03-17T09:57:57.190Z,44.58
2023-03-17T10:00:29.861Z,35.55
2023-03-17T10:03:00.254Z,41.95
2023-03-17T10:05:31.231Z,45.53
2023-03-17T10:08:22.736Z,43.58
2023-03-17T10:11:03.399Z,41.13
2023-03-17T10:13:46.120Z,42.67
2023-03-17T10:16:21.902Z,52.72
2023-03-17T10:18:55.441Z,58.90
2023-03-17T10:21:29.884Z,37.03
2023-03-17T10:23:59.509Z,75.35
2023-03-17T10:26:32.927Z,76.45
2023-03-17T10:29:05.057Z,72.93
2023-03-17T10:31:38.157Z,47.88
2023-03-17T10:34:15.081Z,51.88
2023-03-17T10:36:47.085Z,42.38
2023-03-17T10:39:19.865Z,40.95
2023-03-17T10:41:55.554Z,38.92
2023-03-17T10:44:39.763Z,50.20
2023-03-17T10:47:22.762Z,46.63
2023-03-17T10:49:52.549Z,34.65
2023-03-17T10:52:26.295Z,33.17
2023-03-17T10:54:56.193Z,42.05
2023-03-17T10:57:25.296Z,39.17
2023-03-17T10:59:56.884Z,35.85
2023-03-17T11:02:30.579Z,42.40
2023-03-17T11:05:06.010Z,41.70
2023-03-17T11:07:38.265Z,43.28
2023-03-17T11:10:18.945Z,50.92
2023-03-17T11:12:51.353Z,48.57
2023-03-17T11:15:20.686Z,47.58
2023-03-17T11:17:56.959Z,52.63
2023-03-17T11:20:52.029Z,58.65
2023-03-17T11:23:48.645Z,56.22
2023-03-17T11:26:48.749Z,52.90
2023-03-17T11:29:37.915Z,56.47
2023-03-17T11:32:22.174Z,48.75
2023-03-17T11:35:09.104Z,46.40
2023-03-17T11:38:09.391Z,55.50
2023-03-17T11:40:45.966Z,71.05
2023-03-17T11:43:29.223Z,61.38
2023-03-17T11:46:05.027Z,70.30
2023-03-17T11:48:42.882Z,58.17
2023-03-17T11:51:21.810Z,48.85
2023-03-17T11:54:04.199Z,53.08
2023-03-17T11:56:40.108Z,53.10
2023-03-17T11:59:18.415Z,50.53
2023-03-17T12:01:58.217Z,70.38
2023-03-17T12:04:34.268Z,69.03
2023-03-17T12:07:13.935Z,66.88
2023-03-17T12:09:47.596Z,67.90
2023-03-17T12:12:24.519Z,63.20
2023-03-17T12:14:55.077Z,59.78
2023-03-17T12:17:30.468Z,64.57
2023-03-17T12:20:09.704Z,72.82
2023-03-17T12:22:43.927Z,53.05
2023-03-17T12:25:22.022Z,47.20
2023-03-17T12:27:57.792Z,50.22
2023-03-17T12:30:32.095Z,53.30
2023-03-17T12:33:12.029Z,44.22
2023-03-17T12:35:41.233Z,39.08
2023-03-17T12:38:18.036Z,48.10
2023-03-17T12:41:18.409Z,39.30
2023-03-17T12:43:59.429Z,34.92
2023-03-17T12:46:47.652Z,49.30
2023-03-17T12:49:38.250Z,35.10
2023-03-17T12:52:15.990Z,42.85
2023-03-17T12:54:50.202Z,40.05
2023-03-17T12:57:22.744Z,41.88
2023-03-17T13:00:00.177Z,44.58
2023-03-17T13:02:38.062Z,48.97
2023-03-17T13:05:10.109Z,52.60
2023-03-17T13:07:43.065Z,38.78
2023-03-17T13:10:30.320Z,50.45
2023-03-17T13:13:11.456Z,53.10
2023-03-17T13:16:05.702Z,49.28
2023-03-17T13:19:11.015Z,43.83
2023-03-17T13:21:40.131Z,45.88
2023-03-17T13:24:43.441Z,46.30
2023-03-17T13:27:15.854Z,45.40
2023-03-17T13:29:48.893Z,45.22
2023-03-17T13:32:38.372Z,51.50
2023-03-17T13:35:20.210Z,51.20
2023-03-17T13:38:28.007Z,42.22
2023-03-17T13:41:12.850Z,35.97
2023-03-17T13:43:56.979Z,31.83
2023-03-17T13:46:34.931Z,44.65
2023-03-17T13:49:16.563Z,38.42
2023-03-17T13:54:35.264Z,51.35
2023-03-17T13:57:24.565Z,47.10
2023-03-17T14:00:02.136Z,53.90
2023-03-17T14:02:36.878Z,48.35
2023-03-17T14:05:08.656Z,41.92
2023-03-17T14:07:45.746Z,42.60
2023-03-17T14:10:19.595Z,46.80
2023-03-17T14:12:56.116Z,42.90
2023-03-17T14:15:32.499Z,40.65
2023-03-17T14:18:08.861Z,35.03
2023-03-17T14:20:37.902Z,40.15
2023-03-17T14:23:07.978Z,34.38
2023-03-17T14:25:38.849Z,36.70
2023-03-17T14:28:12.380Z,30.02
2023-03-17T14:30:53.475Z,23.83
2023-03-17T14:33:25.730Z,33.15
2023-03-17T14:36:00.087Z,32.38
2023-03-17T14:38:31.319Z,36.45
2023-03-17T14:41:04.434Z,36.72
2023-03-17T14:43:34.282Z,34.33
2023-03-17T14:46:06.735Z,31.73
2023-03-17T14:48:38.187Z,30.88
2023-03-17T14:53:46.705Z,25.33
2023-03-17T14:56:16.384Z,25.55
2023-03-17T14:58:47.939Z,30.88
2023-03-17T15:01:22.810Z,34.85
2023-03-17T15:03:58.520Z,27.98
2023-03-17T15:06:29.699Z,24.08
2023-03-17T15:09:00.449Z,36.45
2023-03-17T15:11:38.892Z,27.63
2023-03-17T15:14:18.251Z,23.70
2023-03-17T15:16:53.065Z,25.40
2023-03-17T15:19:27.652Z,23.77
2023-03-17T15:22:00.598Z,21.85
2023-03-17T15:24:41.177Z,23.13
2023-03-17T15:27:16.458Z,24.65
2023-03-17T15:29:45.765Z,18.70
2023-03-17T15:32:20.129Z,22.45
2023-03-17T15:34:49.659Z,25.35
2023-03-17T15:37:20.592Z,24.23
2023-03-17T15:39:50.306Z,18.95
2023-03-17T15:42:20.442Z,21.00
2023-03-17T15:44:49.580Z,25.73
2023-03-17T15:47:22.170Z,31.23
2023-03-17T15:49:52.791Z,27.75
2023-03-17T15:52:25.138Z,34.00
2023-03-17T15:54:55.436Z,23.63
2023-03-17T15:57:25.010Z,40.13
2023-03-17T15:59:54.100Z,27.85
2023-03-17T16:02:31.829Z,34.33
2023-03-17T16:05:03.229Z,30.50
2023-03-17T16:10:01.423Z,33.42
2023-03-17T16:12:30.536Z,25.05
2023-03-17T16:15:00.749Z,20.52
2023-03-17T16:17:32.622Z,22.65
2023-03-17T16:20:02.062Z,26.17
2023-03-17T16:22:39.457Z,43.97
2023-03-17T16:25:19.413Z,26.20
2023-03-17T16:27:50.348Z,34.35
2023-03-17T16:30:21.283Z,50.03
2023-03-17T16:32:52.484Z,42.90
2023-03-17T16:35:23.055Z,40.15
2023-03-17T16:37:54.353Z,26.00
2023-03-17T16:40:25.886Z,37.67
2023-03-17T16:45:28.618Z,45.22
2023-03-17T16:47:59.178Z,93.43
2023-03-17T16:50:30.212Z,40.25
2023-03-17T16:52:59.923Z,40.28
2023-03-17T16:55:30.524Z,43.30
2023-03-17T16:58:01.997Z,55.47
2023-03-17T17:00:32.654Z,45.03
2023-03-17T17:03:03.432Z,54.78
2023-03-17T17:05:33.068Z,67.72
2023-03-17T17:08:02.135Z,58.95
2023-03-17T17:10:34.166Z,57.42
2023-03-17T17:13:05.341Z,60.28
2023-03-17T17:15:36.510Z,66.07
2023-03-17T17:18:12.366Z,63.42
2023-03-17T17:20:41.914Z,63.33
2023-03-17T17:23:14.117Z,54.10
2023-03-17T17:25:43.726Z,59.50
2023-03-17T17:28:14.487Z,55.60
2023-03-17T17:30:46.300Z,50.53
2023-03-17T17:33:18.009Z,48.30
2023-03-17T17:35:50.844Z,37.28
2023-03-17T17:38:23.111Z,38.75
2023-03-17T17:40:52.115Z,30.10
2023-03-17T17:43:21.464Z,36.17
2023-03-17T17:45:50.681Z,36.22
2023-03-17T17:48:24.143Z,37.90
2023-03-17T17:50:54.798Z,35.30
2023-03-17T17:53:24.232Z,33.70
2023-03-17T17:55:53.590Z,31.80
2023-03-17T17:58:24.731Z,29.60
2023-03-17T18:03:26.553Z,29.90
2023-03-17T18:05:57.444Z,27.20
2023-03-17T18:08:27.308Z,32.72
2023-03-17T18:10:57.375Z,36.35
2023-03-17T18:13:26.805Z,39.05
2023-03-17T18:15:55.881Z,45.70
2023-03-17T18:18:26.272Z,49.45
2023-03-17T18:20:55.428Z,50.15
2023-03-17T18:23:26.704Z,59.70
2023-03-17T18:28:28.971Z,37.50
2023-03-17T18:31:04.795Z,44.58
2023-03-17T18:33:35.321Z,40.10
2023-03-17T18:36:06.097Z,38.25
2023-03-17T18:38:35.767Z,41.92
2023-03-17T18:41:07.745Z,41.90
2023-03-17T18:43:36.802Z,30.20
2023-03-17T18:46:06.386Z,40.85
2023-03-17T18:48:36.809Z,44.53
2023-03-17T18:51:06.138Z,32.20
2023-03-17T18:53:35.596Z,32.38
2023-03-17T18:56:04.887Z,66.78
2023-03-17T18:58:34.009Z,108.78
2023-03-17T19:01:03.814Z,98.32
2023-03-17T19:03:33.454Z,64.13
2023-03-17T19:06:11.543Z,42.03
2023-03-17T19:08:41.494Z,46.85
2023-03-17T19:11:12.362Z,37.67
2023-03-17T19:13:42.192Z,43.78
2023-03-17T19:16:11.844Z,39.97
2023-03-17T19:18:42.397Z,40.42
2023-03-17T19:21:13.889Z,63.45
2023-03-17T19:23:42.929Z,49.97
2023-03-17T19:26:11.966Z,46.65
2023-03-17T19:28:40.936Z,52.75
2023-03-17T19:31:10.517Z,56.30
2023-03-17T19:33:39.877Z,58.17
2023-03-17T19:36:11.374Z,54.13
2023-03-17T19:38:42.310Z,46.97
2023-03-17T19:41:11.425Z,60.97
2023-03-17T19:43:41.708Z,55.28
2023-03-17T19:46:12.453Z,52.97
2023-03-17T19:48:42.089Z,50.25
2023-03-17T19:51:11.608Z,58.92
2023-03-17T19:53:42.333Z,49.55
2023-03-17T19:56:12.029Z,47.33
2023-03-17T19:58:41.416Z,51.60
2023-03-17T20:01:11.012Z,50.55
2023-03-17T20:03:42.620Z,57.50
2023-03-17T20:06:12.077Z,53.13
2023-03-17T20:08:45.786Z,54.38
2023-03-17T20:11:14.937Z,93.55
2023-03-17T20:13:44.051Z,71.50
2023-03-17T20:16:13.786Z,245.27
2023-03-17T20:18:42.864Z,61.17
2023-03-17T20:21:14.248Z,66.35
2023-03-17T20:26:16.549Z,60.22
2023-03-17T20:28:46.230Z,51.47
2023-03-17T20:31:18.700Z,42.75
2023-03-17T20:33:47.969Z,38.30
2023-03-17T20:36:17.296Z,42.65
2023-03-17T20:38:47.833Z,45.55
2023-03-17T20:41:19.118Z,46.88
2023-03-17T20:46:22.034Z,52.70
2023-03-17T20:48:55.816Z,52.47
2023-03-17T20:51:25.851Z,39.28
2023-03-17T20:53:56.868Z,38.53
2023-03-17T20:56:28.443Z,52.00
2023-03-17T20:58:58.536Z,37.08
2023-03-17T21:01:31.833Z,31.58
2023-03-17T21:04:01.454Z,30.95
2023-03-17T21:06:30.522Z,35.13
2023-03-17T21:09:01.000Z,58.33
2023-03-17T21:11:30.761Z,48.53
2023-03-17T21:13:59.921Z,64.25
2023-03-17T21:16:30.349Z,58.92
2023-03-17T21:19:00.062Z,60.97
2023-03-17T21:21:29.296Z,60.97
2023-03-17T21:23:58.511Z,70.05
2023-03-17T21:26:29.225Z,73.50
2023-03-17T21:28:58.902Z,64.57
2023-03-17T21:31:27.945Z,60.45
2023-03-17T21:33:58.177Z,72.07
2023-03-17T21:36:27.344Z,66.05
2023-03-17T21:38:56.427Z,58.72
2023-03-17T21:41:33.322Z,59.80
2023-03-17T21:44:03.324Z,62.83
2023-03-17T21:46:33.646Z,76.38
2023-03-17T21:49:02.715Z,58.28
2023-03-17T21:51:32.925Z,72.07
2023-03-17T21:54:03.999Z,70.63
2023-03-17T21:56:34.782Z,72.75
2023-03-17T21:59:04.281Z,69.53
2023-03-17T22:01:33.443Z,71.65
2023-03-17T22:04:02.559Z,68.90
2023-03-17T22:06:31.840Z,59.28
2023-03-17T22:09:01.112Z,70.75
2023-03-17T22:11:31.931Z,71.97
2023-03-17T22:14:02.538Z,74.65
2023-03-17T22:16:31.713Z,76.10
2023-03-17T22:19:01.596Z,59.20
2023-03-17T22:21:31.848Z,66.00
2023-03-17T22:24:00.845Z,66.10
2023-03-17T22:26:29.935Z,59.70
2023-03-17T22:28:59.744Z,59.13
2023-03-17T22:31:30.783Z,51.85
2023-03-17T22:34:01.165Z,60.90
2023-03-17T22:36:30.566Z,63.63
2023-03-17T22:39:00.400Z,62.72
2023-03-17T22:41:30.589Z,81.70
2023-03-17T22:43:59.786Z,71.47
2023-03-17T22:46:30.232Z,65.78
2023-03-17T22:48:59.212Z,76.63
2023-03-17T22:51:28.527Z,67.15
2023-03-17T22:53:59.346Z,61.88
2023-03-17T22:56:28.945Z,69.50
2023-03-17T22:58:58.139Z,69.85
2023-03-17T23:01:27.367Z,72.32
2023-03-17T23:03:57.907Z,72.88
2023-03-17T23:06:27.088Z,73.82
2023-03-17T23:08:56.242Z,65.97
2023-03-17T23:11:27.172Z,69.47
2023-03-17T23:13:56.736Z,59.47
2023-03-17T23:16:26.081Z,66.80
2023-03-17T23:18:55.201Z,66.28
2023-03-17T23:21:29.305Z,64.40
2023-03-17T23:23:58.600Z,53.10
2023-03-17T23:26:28.344Z,51.83
2023-03-17T23:28:57.652Z,53.97
2023-03-17T23:31:27.503Z,56.05
2023-03-17T23:33:56.846Z,60.70
2023-03-17T23:36:27.561Z,54.72
2023-03-17T23:38:56.825Z,52.85
2023-03-17T23:41:26.121Z,46.40
2023-03-17T23:43:55.382Z,43.15
2023-03-17T23:46:24.490Z,45.47
2023-03-17T23:48:53.879Z,40.47
2023-03-17T23:51:24.031Z,37.17
2023-03-17T23:53:54.425Z,38.30
2023-03-17T23:56:23.507Z,36.25
2023-03-17T23:58:53.023Z,46.08
